Alma, Georgia
Current Conditions -  °F | °C
As of 5:12 AM on Monday 22 Dec 2014 (Local Time) from KAMG Reporting Station
Haze Haze  
Wind Chill:   Ceiling: 200
Heat Index:   Visibility: 1.7mi
Dew Point:   Wind: 0mph
Humidity: 97%   Direction: NA
Pressure: 30.02"   Gusts: NA
Location:  31.54°N, 82.46°W
Report Text: KAMG 221012Z AUTO 00000KT 1 3/4SM BR OVC002 09/09 A3002 RMK AO2 T00940089 $
Loading
Personal Weather Stations






























Interactive Weather Map New forecast layout! Learn more

10-Day Weather Forecast

Advertisements
Track Severe Weather on mobile